sensor_id;sensor_type;location;lat;lon;timestamp;P1;durP1;ratioP1;P2;durP2;ratioP2
47966;SDS011;33733;52.456;13.620;2022-11-24T00:01:10;12.85;;;6.45;;
47966;SDS011;33733;52.456;13.620;2022-11-24T00:03:41;13.57;;;7.40;;
47966;SDS011;33733;52.456;13.620;2022-11-24T00:06:09;15.32;;;7.30;;
47966;SDS011;33733;52.456;13.620;2022-11-24T00:08:37;11.32;;;5.68;;
47966;SDS011;33733;52.456;13.620;2022-11-24T00:11:06;10.82;;;5.60;;
47966;SDS011;33733;52.456;13.620;2022-11-24T00:13:40;13.55;;;6.75;;
47966;SDS011;33733;52.456;13.620;2022-11-24T00:16:08;12.02;;;6.30;;
47966;SDS011;33733;52.456;13.620;2022-11-24T00:18:36;12.10;;;5.07;;
47966;SDS011;33733;52.456;13.620;2022-11-24T00:21:03;18.35;;;6.60;;
47966;SDS011;33733;52.456;13.620;2022-11-24T00:23:29;9.70;;;5.43;;
47966;SDS011;33733;52.456;13.620;2022-11-24T00:26:06;13.32;;;6.28;;
47966;SDS011;33733;52.456;13.620;2022-11-24T00:28:35;16.52;;;7.32;;
47966;SDS011;33733;52.456;13.620;2022-11-24T00:31:02;18.17;;;7.05;;
47966;SDS011;33733;52.456;13.620;2022-11-24T00:33:30;12.75;;;6.55;;
47966;SDS011;33733;52.456;13.620;2022-11-24T00:35:57;11.05;;;6.57;;
47966;SDS011;33733;52.456;13.620;2022-11-24T00:38:25;12.55;;;6.68;;
47966;SDS011;33733;52.456;13.620;2022-11-24T00:40:51;15.50;;;7.45;;
47966;SDS011;33733;52.456;13.620;2022-11-24T00:43:18;12.30;;;6.65;;
47966;SDS011;33733;52.456;13.620;2022-11-24T00:45:45;14.52;;;6.22;;
47966;SDS011;33733;52.456;13.620;2022-11-24T00:48:12;15.27;;;6.97;;
47966;SDS011;33733;52.456;13.620;2022-11-24T00:50:38;13.18;;;6.90;;
47966;SDS011;33733;52.456;13.620;2022-11-24T00:53:05;13.10;;;8.00;;
47966;SDS011;33733;52.456;13.620;2022-11-24T00:55:31;17.02;;;5.63;;
47966;SDS011;33733;52.456;13.620;2022-11-24T00:57:58;10.05;;;4.65;;
47966;SDS011;33733;52.456;13.620;2022-11-24T01:00:25;8.90;;;5.32;;
47966;SDS011;33733;52.456;13.620;2022-11-24T01:02:51;10.95;;;5.80;;
47966;SDS011;33733;52.456;13.620;2022-11-24T01:05:18;14.77;;;5.82;;
47966;SDS011;33733;52.456;13.620;2022-11-24T01:07:45;15.45;;;6.18;;
47966;SDS011;33733;52.456;13.620;2022-11-24T01:10:12;14.77;;;5.38;;
47966;SDS011;33733;52.456;13.620;2022-11-24T01:12:39;14.05;;;5.13;;
47966;SDS011;33733;52.456;13.620;2022-11-24T01:15:05;12.85;;;5.47;;
47966;SDS011;33733;52.456;13.620;2022-11-24T01:17:32;13.25;;;6.60;;
47966;SDS011;33733;52.456;13.620;2022-11-24T01:19:59;9.43;;;5.13;;
47966;SDS011;33733;52.456;13.620;2022-11-24T01:22:25;10.32;;;5.03;;
47966;SDS011;33733;52.456;13.620;2022-11-24T01:24:52;11.52;;;6.60;;
47966;SDS011;33733;52.456;13.620;2022-11-24T01:27:19;11.15;;;6.15;;
47966;SDS011;33733;52.456;13.620;2022-11-24T01:29:45;15.20;;;6.07;;
47966;SDS011;33733;52.456;13.620;2022-11-24T01:32:12;12.60;;;6.55;;
47966;SDS011;33733;52.456;13.620;2022-11-24T01:34:39;7.63;;;4.13;;
47966;SDS011;33733;52.456;13.620;2022-11-24T01:37:05;21.10;;;7.55;;
47966;SDS011;33733;52.456;13.620;2022-11-24T01:39:32;12.00;;;5.78;;
47966;SDS011;33733;52.456;13.620;2022-11-24T01:42:01;12.77;;;5.47;;
47966;SDS011;33733;52.456;13.620;2022-11-24T01:44:29;12.80;;;6.10;;
47966;SDS011;33733;52.456;13.620;2022-11-24T01:47:39;10.52;;;5.50;;
47966;SDS011;33733;52.456;13.620;2022-11-24T01:49:53;8.90;;;4.38;;
47966;SDS011;33733;52.456;13.620;2022-11-24T01:55:01;12.95;;;7.57;;
47966;SDS011;33733;52.456;13.620;2022-11-24T01:57:32;9.93;;;5.45;;
47966;SDS011;33733;52.456;13.620;2022-11-24T02:00:04;11.43;;;5.90;;
47966;SDS011;33733;52.456;13.620;2022-11-24T02:02:38;14.90;;;7.88;;
47966;SDS011;33733;52.456;13.620;2022-11-24T02:05:07;10.18;;;5.70;;
47966;SDS011;33733;52.456;13.620;2022-11-24T02:07:37;13.93;;;7.25;;
47966;SDS011;33733;52.456;13.620;2022-11-24T02:10:07;9.30;;;5.00;;
47966;SDS011;33733;52.456;13.620;2022-11-24T02:12:38;8.25;;;3.80;;
47966;SDS011;33733;52.456;13.620;2022-11-24T02:15:05;13.75;;;7.18;;
47966;SDS011;33733;52.456;13.620;2022-11-24T02:17:33;11.80;;;5.45;;
47966;SDS011;33733;52.456;13.620;2022-11-24T02:20:01;11.52;;;5.80;;
47966;SDS011;33733;52.456;13.620;2022-11-24T02:22:45;11.75;;;6.10;;
47966;SDS011;33733;52.456;13.620;2022-11-24T02:25:26;11.88;;;6.20;;
47966;SDS011;33733;52.456;13.620;2022-11-24T02:28:20;17.55;;;6.72;;
47966;SDS011;33733;52.456;13.620;2022-11-24T02:30:48;12.45;;;6.70;;
47966;SDS011;33733;52.456;13.620;2022-11-24T02:33:15;10.27;;;4.90;;
47966;SDS011;33733;52.456;13.620;2022-11-24T02:35:42;12.05;;;6.13;;
47966;SDS011;33733;52.456;13.620;2022-11-24T02:38:10;11.82;;;5.07;;
47966;SDS011;33733;52.456;13.620;2022-11-24T02:40:39;8.65;;;4.20;;
47966;SDS011;33733;52.456;13.620;2022-11-24T02:43:09;8.10;;;4.32;;
47966;SDS011;33733;52.456;13.620;2022-11-24T02:45:36;9.15;;;4.22;;
47966;SDS011;33733;52.456;13.620;2022-11-24T02:48:03;9.93;;;3.70;;
47966;SDS011;33733;52.456;13.620;2022-11-24T02:50:30;22.65;;;4.78;;
47966;SDS011;33733;52.456;13.620;2022-11-24T02:52:56;13.90;;;4.38;;
47966;SDS011;33733;52.456;13.620;2022-11-24T02:55:23;14.75;;;6.07;;
47966;SDS011;33733;52.456;13.620;2022-11-24T02:57:50;14.57;;;5.22;;
47966;SDS011;33733;52.456;13.620;2022-11-24T03:00:17;9.95;;;4.43;;
47966;SDS011;33733;52.456;13.620;2022-11-24T03:02:44;10.77;;;7.18;;
47966;SDS011;33733;52.456;13.620;2022-11-24T03:05:10;13.05;;;6.18;;
47966;SDS011;33733;52.456;13.620;2022-11-24T03:07:37;10.10;;;4.25;;
47966;SDS011;33733;52.456;13.620;2022-11-24T03:10:04;13.75;;;5.38;;
47966;SDS011;33733;52.456;13.620;2022-11-24T03:12:31;10.00;;;5.35;;
47966;SDS011;33733;52.456;13.620;2022-11-24T03:14:58;8.68;;;3.72;;
47966;SDS011;33733;52.456;13.620;2022-11-24T03:17:24;8.48;;;3.97;;
47966;SDS011;33733;52.456;13.620;2022-11-24T03:19:51;12.05;;;7.05;;
47966;SDS011;33733;52.456;13.620;2022-11-24T03:22:17;14.32;;;7.40;;
47966;SDS011;33733;52.456;13.620;2022-11-24T03:24:44;7.18;;;3.70;;
47966;SDS011;33733;52.456;13.620;2022-11-24T03:27:11;7.63;;;4.57;;
47966;SDS011;33733;52.456;13.620;2022-11-24T03:29:37;9.90;;;4.40;;
47966;SDS011;33733;52.456;13.620;2022-11-24T03:32:04;12.25;;;6.32;;
47966;SDS011;33733;52.456;13.620;2022-11-24T03:34:31;10.98;;;4.95;;
47966;SDS011;33733;52.456;13.620;2022-11-24T03:36:58;9.88;;;5.00;;
47966;SDS011;33733;52.456;13.620;2022-11-24T03:39:25;16.90;;;5.05;;
47966;SDS011;33733;52.456;13.620;2022-11-24T03:41:51;7.47;;;4.72;;
47966;SDS011;33733;52.456;13.620;2022-11-24T03:44:18;14.57;;;5.82;;
47966;SDS011;33733;52.456;13.620;2022-11-24T03:46:44;5.20;;;3.08;;
47966;SDS011;33733;52.456;13.620;2022-11-24T03:49:11;8.05;;;4.15;;
47966;SDS011;33733;52.456;13.620;2022-11-24T03:51:37;10.55;;;5.28;;
47966;SDS011;33733;52.456;13.620;2022-11-24T03:54:04;11.93;;;5.03;;
47966;SDS011;33733;52.456;13.620;2022-11-24T03:56:32;7.82;;;4.28;;
47966;SDS011;33733;52.456;13.620;2022-11-24T03:58:58;7.30;;;3.40;;
47966;SDS011;33733;52.456;13.620;2022-11-24T04:01:25;7.40;;;3.72;;
47966;SDS011;33733;52.456;13.620;2022-11-24T04:03:51;12.57;;;5.03;;
47966;SDS011;33733;52.456;13.620;2022-11-24T04:06:18;5.78;;;3.45;;
47966;SDS011;33733;52.456;13.620;2022-11-24T04:08:45;7.47;;;4.50;;
47966;SDS011;33733;52.456;13.620;2022-11-24T04:11:11;12.15;;;5.00;;
47966;SDS011;33733;52.456;13.620;2022-11-24T04:13:58;7.30;;;3.97;;
47966;SDS011;33733;52.456;13.620;2022-11-24T04:16:24;8.48;;;4.65;;
47966;SDS011;33733;52.456;13.620;2022-11-24T04:18:51;3.60;;;2.13;;
47966;SDS011;33733;52.456;13.620;2022-11-24T04:21:18;9.20;;;4.45;;
47966;SDS011;33733;52.456;13.620;2022-11-24T04:23:45;7.72;;;4.25;;
47966;SDS011;33733;52.456;13.620;2022-11-24T04:26:12;10.30;;;4.13;;
47966;SDS011;33733;52.456;13.620;2022-11-24T04:28:39;7.40;;;4.60;;
47966;SDS011;33733;52.456;13.620;2022-11-24T04:31:06;9.68;;;3.88;;
47966;SDS011;33733;52.456;13.620;2022-11-24T04:33:33;5.28;;;2.22;;
47966;SDS011;33733;52.456;13.620;2022-11-24T04:35:59;8.43;;;4.20;;
47966;SDS011;33733;52.456;13.620;2022-11-24T04:38:26;6.68;;;2.42;;
47966;SDS011;33733;52.456;13.620;2022-11-24T04:41:12;11.00;;;4.18;;
47966;SDS011;33733;52.456;13.620;2022-11-24T04:43:39;10.18;;;4.07;;
47966;SDS011;33733;52.456;13.620;2022-11-24T04:46:07;8.95;;;3.53;;
47966;SDS011;33733;52.456;13.620;2022-11-24T04:48:35;7.85;;;3.75;;
47966;SDS011;33733;52.456;13.620;2022-11-24T04:51:05;9.07;;;3.92;;
47966;SDS011;33733;52.456;13.620;2022-11-24T04:53:32;11.70;;;5.93;;
47966;SDS011;33733;52.456;13.620;2022-11-24T04:56:02;8.48;;;4.03;;
47966;SDS011;33733;52.456;13.620;2022-11-24T04:58:30;9.52;;;3.88;;
47966;SDS011;33733;52.456;13.620;2022-11-24T05:00:57;8.48;;;3.13;;
47966;SDS011;33733;52.456;13.620;2022-11-24T05:03:24;10.50;;;3.25;;
47966;SDS011;33733;52.456;13.620;2022-11-24T05:05:50;8.18;;;4.20;;
47966;SDS011;33733;52.456;13.620;2022-11-24T05:08:17;7.18;;;3.10;;
47966;SDS011;33733;52.456;13.620;2022-11-24T05:10:44;10.02;;;3.95;;
47966;SDS011;33733;52.456;13.620;2022-11-24T05:13:11;5.85;;;2.65;;
47966;SDS011;33733;52.456;13.620;2022-11-24T05:15:38;5.30;;;3.67;;
47966;SDS011;33733;52.456;13.620;2022-11-24T05:18:06;10.95;;;3.03;;
47966;SDS011;33733;52.456;13.620;2022-11-24T05:20:34;9.32;;;4.25;;
47966;SDS011;33733;52.456;13.620;2022-11-24T05:23:04;7.65;;;3.75;;
47966;SDS011;33733;52.456;13.620;2022-11-24T05:25:33;6.75;;;2.67;;
47966;SDS011;33733;52.456;13.620;2022-11-24T05:28:00;7.15;;;3.72;;
47966;SDS011;33733;52.456;13.620;2022-11-24T05:30:29;9.68;;;4.78;;
47966;SDS011;33733;52.456;13.620;2022-11-24T05:32:56;5.32;;;2.88;;
47966;SDS011;33733;52.456;13.620;2022-11-24T05:35:23;6.22;;;3.15;;
47966;SDS011;33733;52.456;13.620;2022-11-24T05:37:50;11.80;;;3.45;;
47966;SDS011;33733;52.456;13.620;2022-11-24T05:40:17;9.90;;;3.42;;
47966;SDS011;33733;52.456;13.620;2022-11-24T05:42:43;6.90;;;3.38;;
47966;SDS011;33733;52.456;13.620;2022-11-24T05:45:17;9.25;;;2.30;;
47966;SDS011;33733;52.456;13.620;2022-11-24T05:47:45;7.65;;;4.10;;
47966;SDS011;33733;52.456;13.620;2022-11-24T05:50:12;10.40;;;3.90;;
47966;SDS011;33733;52.456;13.620;2022-11-24T05:52:40;7.88;;;3.55;;
47966;SDS011;33733;52.456;13.620;2022-11-24T05:55:07;9.13;;;4.00;;
47966;SDS011;33733;52.456;13.620;2022-11-24T05:57:34;6.93;;;2.80;;
47966;SDS011;33733;52.456;13.620;2022-11-24T06:00:02;10.38;;;4.25;;
47966;SDS011;33733;52.456;13.620;2022-11-24T06:02:37;7.45;;;3.42;;
47966;SDS011;33733;52.456;13.620;2022-11-24T06:05:04;6.70;;;3.72;;
47966;SDS011;33733;52.456;13.620;2022-11-24T06:07:31;8.50;;;3.25;;
47966;SDS011;33733;52.456;13.620;2022-11-24T06:09:57;16.15;;;4.07;;
47966;SDS011;33733;52.456;13.620;2022-11-24T06:12:24;7.32;;;3.60;;
47966;SDS011;33733;52.456;13.620;2022-11-24T06:14:51;7.15;;;3.45;;
47966;SDS011;33733;52.456;13.620;2022-11-24T06:17:17;6.78;;;3.75;;
47966;SDS011;33733;52.456;13.620;2022-11-24T06:19:44;6.50;;;3.17;;
47966;SDS011;33733;52.456;13.620;2022-11-24T06:22:13;8.38;;;3.50;;
47966;SDS011;33733;52.456;13.620;2022-11-24T06:24:39;6.80;;;3.08;;
47966;SDS011;33733;52.456;13.620;2022-11-24T06:27:06;9.13;;;2.42;;
47966;SDS011;33733;52.456;13.620;2022-11-24T06:29:32;12.13;;;4.10;;
47966;SDS011;33733;52.456;13.620;2022-11-24T06:31:59;7.35;;;3.17;;
47966;SDS011;33733;52.456;13.620;2022-11-24T06:34:26;13.73;;;4.05;;
47966;SDS011;33733;52.456;13.620;2022-11-24T06:36:52;6.30;;;2.50;;
47966;SDS011;33733;52.456;13.620;2022-11-24T06:39:19;8.32;;;3.58;;
47966;SDS011;33733;52.456;13.620;2022-11-24T06:41:45;7.07;;;2.58;;
47966;SDS011;33733;52.456;13.620;2022-11-24T06:44:15;4.65;;;2.42;;
47966;SDS011;33733;52.456;13.620;2022-11-24T06:46:41;9.48;;;2.50;;
47966;SDS011;33733;52.456;13.620;2022-11-24T06:49:08;5.72;;;2.47;;
47966;SDS011;33733;52.456;13.620;2022-11-24T06:51:34;8.10;;;2.58;;
47966;SDS011;33733;52.456;13.620;2022-11-24T06:54:01;11.50;;;3.58;;
47966;SDS011;33733;52.456;13.620;2022-11-24T06:56:31;6.65;;;2.17;;
47966;SDS011;33733;52.456;13.620;2022-11-24T06:58:58;8.10;;;3.33;;
47966;SDS011;33733;52.456;13.620;2022-11-24T07:01:25;4.28;;;1.80;;
47966;SDS011;33733;52.456;13.620;2022-11-24T07:03:53;5.88;;;2.58;;
47966;SDS011;33733;52.456;13.620;2022-11-24T07:06:21;7.03;;;3.35;;
47966;SDS011;33733;52.456;13.620;2022-11-24T07:08:49;5.43;;;1.73;;
47966;SDS011;33733;52.456;13.620;2022-11-24T07:11:17;6.80;;;2.97;;
47966;SDS011;33733;52.456;13.620;2022-11-24T07:13:45;5.38;;;2.38;;
47966;SDS011;33733;52.456;13.620;2022-11-24T07:16:13;7.05;;;3.17;;
47966;SDS011;33733;52.456;13.620;2022-11-24T07:18:42;6.50;;;3.13;;
47966;SDS011;33733;52.456;13.620;2022-11-24T07:21:09;7.30;;;3.10;;
47966;SDS011;33733;52.456;13.620;2022-11-24T07:23:36;11.98;;;5.85;;
47966;SDS011;33733;52.456;13.620;2022-11-24T07:26:03;5.20;;;2.45;;
47966;SDS011;33733;52.456;13.620;2022-11-24T07:28:32;9.98;;;3.45;;
47966;SDS011;33733;52.456;13.620;2022-11-24T07:31:09;7.20;;;2.25;;
47966;SDS011;33733;52.456;13.620;2022-11-24T07:33:37;4.10;;;1.58;;
47966;SDS011;33733;52.456;13.620;2022-11-24T07:36:05;7.85;;;2.83;;
47966;SDS011;33733;52.456;13.620;2022-11-24T07:38:33;5.85;;;2.63;;
47966;SDS011;33733;52.456;13.620;2022-11-24T07:41:04;5.65;;;2.45;;
47966;SDS011;33733;52.456;13.620;2022-11-24T07:43:32;8.05;;;3.28;;
47966;SDS011;33733;52.456;13.620;2022-11-24T07:45:59;9.63;;;4.28;;
47966;SDS011;33733;52.456;13.620;2022-11-24T07:48:26;5.57;;;2.25;;
47966;SDS011;33733;52.456;13.620;2022-11-24T07:50:53;8.02;;;3.45;;
47966;SDS011;33733;52.456;13.620;2022-11-24T07:53:21;6.75;;;2.63;;
47966;SDS011;33733;52.456;13.620;2022-11-24T07:55:51;7.93;;;2.95;;
47966;SDS011;33733;52.456;13.620;2022-11-24T07:58:22;9.20;;;3.55;;
47966;SDS011;33733;52.456;13.620;2022-11-24T08:00:54;6.88;;;2.67;;
47966;SDS011;33733;52.456;13.620;2022-11-24T08:03:21;16.17;;;3.63;;
47966;SDS011;33733;52.456;13.620;2022-11-24T08:05:54;11.52;;;5.00;;
47966;SDS011;33733;52.456;13.620;2022-11-24T08:08:45;5.72;;;2.55;;
47966;SDS011;33733;52.456;13.620;2022-11-24T08:11:12;6.93;;;2.15;;
47966;SDS011;33733;52.456;13.620;2022-11-24T08:13:41;8.25;;;2.80;;
47966;SDS011;33733;52.456;13.620;2022-11-24T08:16:11;7.53;;;3.85;;
47966;SDS011;33733;52.456;13.620;2022-11-24T08:18:40;6.38;;;3.80;;
47966;SDS011;33733;52.456;13.620;2022-11-24T08:21:07;4.22;;;2.40;;
47966;SDS011;33733;52.456;13.620;2022-11-24T08:23:37;12.65;;;3.22;;
47966;SDS011;33733;52.456;13.620;2022-11-24T08:26:04;13.07;;;3.80;;
47966;SDS011;33733;52.456;13.620;2022-11-24T08:31:01;6.30;;;2.70;;
47966;SDS011;33733;52.456;13.620;2022-11-24T08:33:32;4.35;;;1.70;;
47966;SDS011;33733;52.456;13.620;2022-11-24T08:36:03;7.15;;;3.17;;
47966;SDS011;33733;52.456;13.620;2022-11-24T08:38:33;5.85;;;2.13;;
47966;SDS011;33733;52.456;13.620;2022-11-24T08:41:01;7.60;;;3.83;;
47966;SDS011;33733;52.456;13.620;2022-11-24T08:43:29;6.30;;;2.75;;
47966;SDS011;33733;52.456;13.620;2022-11-24T08:45:59;7.70;;;2.15;;
47966;SDS011;33733;52.456;13.620;2022-11-24T08:48:32;7.43;;;3.40;;
47966;SDS011;33733;52.456;13.620;2022-11-24T08:51:04;5.40;;;2.60;;
47966;SDS011;33733;52.456;13.620;2022-11-24T08:53:33;10.65;;;4.15;;
47966;SDS011;33733;52.456;13.620;2022-11-24T08:56:00;4.88;;;3.10;;
47966;SDS011;33733;52.456;13.620;2022-11-24T08:58:27;5.53;;;2.85;;
47966;SDS011;33733;52.456;13.620;2022-11-24T09:00:55;3.97;;;1.95;;
47966;SDS011;33733;52.456;13.620;2022-11-24T09:03:29;8.65;;;2.95;;
47966;SDS011;33733;52.456;13.620;2022-11-24T09:05:56;6.90;;;4.22;;
47966;SDS011;33733;52.456;13.620;2022-11-24T09:08:22;7.18;;;2.92;;
47966;SDS011;33733;52.456;13.620;2022-11-24T09:10:49;6.05;;;2.33;;
47966;SDS011;33733;52.456;13.620;2022-11-24T09:13:16;6.85;;;3.15;;
47966;SDS011;33733;52.456;13.620;2022-11-24T09:15:43;6.95;;;2.80;;
47966;SDS011;33733;52.456;13.620;2022-11-24T09:18:10;5.90;;;2.92;;
47966;SDS011;33733;52.456;13.620;2022-11-24T09:20:36;8.57;;;3.78;;
47966;SDS011;33733;52.456;13.620;2022-11-24T09:23:10;5.05;;;2.40;;
47966;SDS011;33733;52.456;13.620;2022-11-24T09:25:44;7.82;;;2.88;;
47966;SDS011;33733;52.456;13.620;2022-11-24T09:28:11;8.60;;;4.15;;
47966;SDS011;33733;52.456;13.620;2022-11-24T09:30:38;8.70;;;3.13;;
47966;SDS011;33733;52.456;13.620;2022-11-24T09:33:05;5.53;;;2.72;;
47966;SDS011;33733;52.456;13.620;2022-11-24T09:35:41;5.78;;;3.08;;
47966;SDS011;33733;52.456;13.620;2022-11-24T09:38:08;7.18;;;2.72;;
47966;SDS011;33733;52.456;13.620;2022-11-24T09:40:36;5.32;;;2.47;;
47966;SDS011;33733;52.456;13.620;2022-11-24T09:43:15;8.38;;;3.50;;
47966;SDS011;33733;52.456;13.620;2022-11-24T09:49:29;6.28;;;3.65;;
47966;SDS011;33733;52.456;13.620;2022-11-24T09:52:02;6.70;;;3.30;;
47966;SDS011;33733;52.456;13.620;2022-11-24T09:54:35;7.03;;;3.45;;
47966;SDS011;33733;52.456;13.620;2022-11-24T09:57:03;6.45;;;3.38;;
47966;SDS011;33733;52.456;13.620;2022-11-24T09:59:31;7.88;;;2.97;;
47966;SDS011;33733;52.456;13.620;2022-11-24T10:01:58;6.05;;;2.75;;
47966;SDS011;33733;52.456;13.620;2022-11-24T10:04:27;5.65;;;2.60;;
47966;SDS011;33733;52.456;13.620;2022-11-24T10:26:03;5.18;;;2.47;;
47966;SDS011;33733;52.456;13.620;2022-11-24T10:28:41;7.03;;;2.70;;
47966;SDS011;33733;52.456;13.620;2022-11-24T10:31:21;8.82;;;4.30;;
47966;SDS011;33733;52.456;13.620;2022-11-24T10:33:50;4.78;;;1.90;;
47966;SDS011;33733;52.456;13.620;2022-11-24T10:36:19;4.70;;;2.90;;
47966;SDS011;33733;52.456;13.620;2022-11-24T10:39:04;9.75;;;2.22;;
47966;SDS011;33733;52.456;13.620;2022-11-24T10:44:22;6.45;;;3.38;;
47966;SDS011;33733;52.456;13.620;2022-11-24T10:46:49;6.90;;;3.92;;
47966;SDS011;33733;52.456;13.620;2022-11-24T10:49:18;9.27;;;2.80;;
47966;SDS011;33733;52.456;13.620;2022-11-24T10:51:55;7.85;;;2.80;;
47966;SDS011;33733;52.456;13.620;2022-11-24T10:54:28;9.30;;;3.40;;
47966;SDS011;33733;52.456;13.620;2022-11-24T10:56:55;8.93;;;3.70;;
47966;SDS011;33733;52.456;13.620;2022-11-24T10:59:31;9.52;;;4.78;;
47966;SDS011;33733;52.456;13.620;2022-11-24T11:02:01;8.73;;;3.78;;
47966;SDS011;33733;52.456;13.620;2022-11-24T11:04:47;9.40;;;4.15;;
47966;SDS011;33733;52.456;13.620;2022-11-24T11:07:17;5.05;;;2.22;;
47966;SDS011;33733;52.456;13.620;2022-11-24T11:09:46;10.93;;;3.90;;
47966;SDS011;33733;52.456;13.620;2022-11-24T11:12:26;8.98;;;3.28;;
47966;SDS011;33733;52.456;13.620;2022-11-24T11:15:20;8.52;;;3.60;;
47966;SDS011;33733;52.456;13.620;2022-11-24T11:17:48;10.48;;;4.85;;
47966;SDS011;33733;52.456;13.620;2022-11-24T11:20:18;8.68;;;4.07;;
47966;SDS011;33733;52.456;13.620;2022-11-24T11:22:52;8.73;;;4.47;;
47966;SDS011;33733;52.456;13.620;2022-11-24T11:25:27;7.82;;;3.40;;
47966;SDS011;33733;52.456;13.620;2022-11-24T11:28:42;8.32;;;4.40;;
47966;SDS011;33733;52.456;13.620;2022-11-24T11:31:04;9.57;;;4.40;;
47966;SDS011;33733;52.456;13.620;2022-11-24T11:33:53;6.72;;;3.30;;
47966;SDS011;33733;52.456;13.620;2022-11-24T11:36:30;11.05;;;4.93;;
47966;SDS011;33733;52.456;13.620;2022-11-24T11:38:58;10.95;;;5.38;;
47966;SDS011;33733;52.456;13.620;2022-11-24T11:41:27;9.63;;;4.22;;
47966;SDS011;33733;52.456;13.620;2022-11-24T11:46:50;9.80;;;4.07;;
47966;SDS011;33733;52.456;13.620;2022-11-24T11:49:19;11.10;;;4.88;;
47966;SDS011;33733;52.456;13.620;2022-11-24T11:51:51;11.45;;;4.70;;
47966;SDS011;33733;52.456;13.620;2022-11-24T11:54:25;11.55;;;5.13;;
47966;SDS011;33733;52.456;13.620;2022-11-24T11:57:01;9.88;;;3.75;;
47966;SDS011;33733;52.456;13.620;2022-11-24T12:04:56;15.02;;;5.30;;
47966;SDS011;33733;52.456;13.620;2022-11-24T12:15:50;12.63;;;4.80;;
47966;SDS011;33733;52.456;13.620;2022-11-24T12:18:23;11.30;;;5.05;;
47966;SDS011;33733;52.456;13.620;2022-11-24T12:21:18;10.40;;;5.72;;
47966;SDS011;33733;52.456;13.620;2022-11-24T12:29:45;7.45;;;3.17;;
47966;SDS011;33733;52.456;13.620;2022-11-24T12:32:42;7.63;;;3.30;;
47966;SDS011;33733;52.456;13.620;2022-11-24T12:35:32;8.10;;;3.53;;
47966;SDS011;33733;52.456;13.620;2022-11-24T12:44:00;8.32;;;3.50;;
47966;SDS011;33733;52.456;13.620;2022-11-24T12:46:44;8.57;;;3.20;;
47966;SDS011;33733;52.456;13.620;2022-11-24T12:52:18;9.68;;;4.57;;
47966;SDS011;33733;52.456;13.620;2022-11-24T12:54:48;8.00;;;3.75;;
47966;SDS011;33733;52.456;13.620;2022-11-24T12:57:20;9.52;;;4.50;;
47966;SDS011;33733;52.456;13.620;2022-11-24T13:00:06;11.90;;;3.60;;
47966;SDS011;33733;52.456;13.620;2022-11-24T13:08:18;10.38;;;4.90;;
47966;SDS011;33733;52.456;13.620;2022-11-24T13:10:45;8.13;;;3.58;;
47966;SDS011;33733;52.456;13.620;2022-11-24T13:13:25;10.82;;;5.88;;
47966;SDS011;33733;52.456;13.620;2022-11-24T13:21:49;13.02;;;4.80;;
47966;SDS011;33733;52.456;13.620;2022-11-24T13:27:38;12.60;;;3.55;;
47966;SDS011;33733;52.456;13.620;2022-11-24T13:29:52;8.52;;;3.38;;
47966;SDS011;33733;52.456;13.620;2022-11-24T13:43:37;8.45;;;4.00;;
47966;SDS011;33733;52.456;13.620;2022-11-24T13:53:17;11.65;;;4.32;;
47966;SDS011;33733;52.456;13.620;2022-11-24T13:55:53;11.43;;;3.83;;
47966;SDS011;33733;52.456;13.620;2022-11-24T14:08:56;11.07;;;4.25;;
47966;SDS011;33733;52.456;13.620;2022-11-24T14:11:27;10.40;;;4.25;;
47966;SDS011;33733;52.456;13.620;2022-11-24T14:13:54;9.98;;;4.18;;
47966;SDS011;33733;52.456;13.620;2022-11-24T14:16:22;12.02;;;4.93;;
47966;SDS011;33733;52.456;13.620;2022-11-24T14:18:50;9.18;;;3.92;;
47966;SDS011;33733;52.456;13.620;2022-11-24T14:21:24;6.88;;;3.10;;
47966;SDS011;33733;52.456;13.620;2022-11-24T14:24:00;10.25;;;4.13;;
47966;SDS011;33733;52.456;13.620;2022-11-24T14:26:35;14.77;;;6.13;;
47966;SDS011;33733;52.456;13.620;2022-11-24T14:29:11;7.28;;;3.65;;
47966;SDS011;33733;52.456;13.620;2022-11-24T14:31:40;12.25;;;5.65;;
47966;SDS011;33733;52.456;13.620;2022-11-24T14:34:16;9.98;;;4.03;;
47966;SDS011;33733;52.456;13.620;2022-11-24T14:36:43;8.32;;;4.35;;
47966;SDS011;33733;52.456;13.620;2022-11-24T14:39:11;8.90;;;3.10;;
47966;SDS011;33733;52.456;13.620;2022-11-24T14:41:43;8.80;;;4.15;;
47966;SDS011;33733;52.456;13.620;2022-11-24T14:44:27;7.07;;;2.45;;
47966;SDS011;33733;52.456;13.620;2022-11-24T14:50:05;8.65;;;3.45;;
47966;SDS011;33733;52.456;13.620;2022-11-24T14:52:40;7.53;;;3.30;;
47966;SDS011;33733;52.456;13.620;2022-11-24T14:55:46;10.52;;;4.88;;
47966;SDS011;33733;52.456;13.620;2022-11-24T14:58:18;6.22;;;3.25;;
47966;SDS011;33733;52.456;13.620;2022-11-24T15:01:05;10.27;;;4.72;;
47966;SDS011;33733;52.456;13.620;2022-11-24T15:03:34;5.32;;;2.97;;
47966;SDS011;33733;52.456;13.620;2022-11-24T15:06:00;10.55;;;4.63;;
47966;SDS011;33733;52.456;13.620;2022-11-24T15:08:29;6.72;;;2.60;;
47966;SDS011;33733;52.456;13.620;2022-11-24T15:11:02;13.20;;;3.65;;
47966;SDS011;33733;52.456;13.620;2022-11-24T15:13:32;8.93;;;3.42;;
47966;SDS011;33733;52.456;13.620;2022-11-24T15:16:06;14.63;;;5.63;;
47966;SDS011;33733;52.456;13.620;2022-11-24T15:18:43;12.20;;;5.55;;
47966;SDS011;33733;52.456;13.620;2022-11-24T15:21:12;8.95;;;3.75;;
47966;SDS011;33733;52.456;13.620;2022-11-24T15:23:51;14.27;;;5.53;;
47966;SDS011;33733;52.456;13.620;2022-11-24T15:26:30;10.38;;;5.50;;
47966;SDS011;33733;52.456;13.620;2022-11-24T15:29:05;8.43;;;3.45;;
47966;SDS011;33733;52.456;13.620;2022-11-24T15:31:31;11.48;;;4.90;;
47966;SDS011;33733;52.456;13.620;2022-11-24T15:33:58;16.75;;;5.47;;
47966;SDS011;33733;52.456;13.620;2022-11-24T15:36:25;8.88;;;4.25;;
47966;SDS011;33733;52.456;13.620;2022-11-24T15:38:51;11.85;;;4.47;;
47966;SDS011;33733;52.456;13.620;2022-11-24T15:41:18;11.25;;;4.30;;
47966;SDS011;33733;52.456;13.620;2022-11-24T15:43:46;8.43;;;4.03;;
47966;SDS011;33733;52.456;13.620;2022-11-24T15:46:13;11.07;;;5.63;;
47966;SDS011;33733;52.456;13.620;2022-11-24T15:48:39;11.23;;;4.20;;
47966;SDS011;33733;52.456;13.620;2022-11-24T15:51:06;9.07;;;3.97;;
47966;SDS011;33733;52.456;13.620;2022-11-24T15:53:38;9.00;;;4.82;;
47966;SDS011;33733;52.456;13.620;2022-11-24T15:56:07;8.30;;;3.15;;
47966;SDS011;33733;52.456;13.620;2022-11-24T15:58:38;9.68;;;3.80;;
47966;SDS011;33733;52.456;13.620;2022-11-24T16:01:04;10.38;;;4.57;;
47966;SDS011;33733;52.456;13.620;2022-11-24T16:03:31;10.57;;;4.60;;
47966;SDS011;33733;52.456;13.620;2022-11-24T16:06:18;8.32;;;4.25;;
47966;SDS011;33733;52.456;13.620;2022-11-24T16:08:51;7.53;;;3.20;;
47966;SDS011;33733;52.456;13.620;2022-11-24T16:11:18;11.18;;;4.53;;
47966;SDS011;33733;52.456;13.620;2022-11-24T16:13:45;9.38;;;3.78;;
47966;SDS011;33733;52.456;13.620;2022-11-24T16:16:17;21.17;;;6.55;;
47966;SDS011;33733;52.456;13.620;2022-11-24T16:18:44;11.52;;;5.28;;
47966;SDS011;33733;52.456;13.620;2022-11-24T16:21:11;10.00;;;5.40;;
47966;SDS011;33733;52.456;13.620;2022-11-24T16:23:38;8.95;;;4.95;;
47966;SDS011;33733;52.456;13.620;2022-11-24T16:26:04;10.95;;;4.88;;
47966;SDS011;33733;52.456;13.620;2022-11-24T16:28:31;9.50;;;4.32;;
47966;SDS011;33733;52.456;13.620;2022-11-24T16:30:59;10.70;;;4.10;;
47966;SDS011;33733;52.456;13.620;2022-11-24T16:33:27;10.13;;;3.92;;